Time;durP1;ratioP1;P1;durP2;ratioP2;P2;SDS_P1;SDS_P2;PMS_P1;PMS_P2;Temp;Humidity;BMP_temperature;BMP_pressure;BME280_temperature;BME280_humidity;BME280_pressure;Samples;Min_cycle;Max_cycle;Signal;HPM_P1;HPM_P2
2023/03/27 00:00:07;;;;;;;10.07;2.25;;;6.00;99.90;;;;;;4130087;28;20030;-72
2023/03/27 00:02:10;;;;;;;8.90;1.85;;;6.00;99.90;;;;;;4131920;28;20508;-72
2023/03/27 00:04:14;;;;;;;;;;;6.00;99.90;;;;;;4129089;28;20030;-70
2023/03/27 00:06:16;;;;;;;12.88;2.17;;;6.00;99.90;;;;;;4127395;28;19913;-70
2023/03/27 00:08:16;;;;;;;10.50;1.92;;;6.00;99.90;;;;;;4133887;28;20045;-71
2023/03/27 00:10:17;;;;;;;11.02;2.08;;;6.00;99.90;;;;;;4129438;28;20121;-71
2023/03/27 00:12:17;;;;;;;11.93;2.50;;;5.90;99.90;;;;;;4129591;28;20027;-71
2023/03/27 00:14:19;;;;;;;13.32;2.38;;;5.90;99.90;;;;;;4129142;28;20572;-71
2023/03/27 00:16:22;;;;;;;12.13;2.53;;;5.80;99.90;;;;;;4134089;28;20437;-70
2023/03/27 00:18:23;;;;;;;11.88;2.10;;;5.90;99.90;;;;;;4129674;28;20026;-71
2023/03/27 00:20:25;;;;;;;8.75;2.20;;;5.80;99.90;;;;;;4133681;28;20370;-72
2023/03/27 00:22:28;;;;;;;10.05;2.15;;;5.90;99.90;;;;;;4133145;28;20085;-71
2023/03/27 00:24:29;;;;;;;6.43;2.00;;;5.80;99.90;;;;;;4132083;28;20121;-71
2023/03/27 00:26:29;;;;;;;8.40;2.13;;;5.80;99.90;;;;;;4136769;28;20113;-71
2023/03/27 00:28:30;;;;;;;9.05;1.88;;;5.70;99.90;;;;;;4128887;28;20402;-71
2023/03/27 00:30:32;;;;;;;12.32;2.72;;;5.70;99.90;;;;;;4137496;28;20812;-71
2023/03/27 00:32:33;;;;;;;7.50;1.95;;;5.70;99.90;;;;;;4138102;28;20122;-71
2023/03/27 00:34:33;;;;;;;8.90;1.90;;;5.70;99.90;;;;;;4132568;28;20481;-72
2023/03/27 00:36:34;;;;;;;10.93;2.30;;;5.70;99.90;;;;;;4131915;28;20048;-71
2023/03/27 00:38:35;;;;;;;15.20;2.47;;;5.70;99.90;;;;;;4136555;28;20418;-72
2023/03/27 00:40:36;;;;;;;9.68;1.75;;;5.60;99.90;;;;;;4134365;28;20045;-71
2023/03/27 00:42:37;;;;;;;9.20;1.90;;;5.70;99.90;;;;;;4131663;28;20038;-71
2023/03/27 00:44:38;;;;;;;9.05;1.88;;;5.60;99.90;;;;;;4136883;28;20037;-71
2023/03/27 00:46:42;;;;;;;5.03;1.58;;;5.60;99.90;;;;;;4133462;28;20046;-71
2023/03/27 00:48:50;;;;;;;13.57;2.20;;;5.60;99.90;;;;;;4130882;28;20121;-67
2023/03/27 00:50:51;;;;;;;5.20;1.60;;;5.60;99.90;;;;;;4151382;28;20068;-71
2023/03/27 00:52:57;;;;;;;15.50;2.10;;;5.60;99.90;;;;;;4134021;28;20457;-70
2023/03/27 00:55:02;;;;;;;9.50;2.00;;;5.60;99.90;;;;;;4128685;28;20173;-71
2023/03/27 00:57:06;;;;;;;5.80;1.48;;;5.50;99.90;;;;;;4133137;28;20026;-70
2023/03/27 00:59:11;;;;;;;12.70;2.30;;;5.50;99.90;;;;;;4132385;28;20084;-72
2023/03/27 01:01:14;;;;;;;11.50;2.53;;;5.50;99.90;;;;;;4131270;28;20061;-71
2023/03/27 01:03:16;;;;;;;11.07;1.92;;;5.50;99.90;;;;;;4137321;28;20474;-71
2023/03/27 01:05:19;;;;;;;8.68;1.98;;;5.40;99.90;;;;;;4134048;28;20104;-71
2023/03/27 01:07:21;;;;;;;6.25;1.98;;;5.40;99.90;;;;;;4136459;28;20045;-71
2023/03/27 01:09:22;;;;;;;6.65;1.67;;;5.40;99.90;;;;;;4133089;28;20406;-71
2023/03/27 01:11:54;;;;;;;8.68;2.25;;;5.40;99.90;;;;;;4134225;28;20030;-71
2023/03/27 01:14:07;;;;;;;10.40;2.15;;;5.40;99.90;;;;;;4130814;28;20030;-71
2023/03/27 01:16:17;;;;;;;10.35;1.88;;;5.40;99.90;;;;;;4130766;28;20053;-71
2023/03/27 01:19:04;;;;;;;8.45;1.90;;;5.30;99.90;;;;;;4131125;28;20035;-70
2023/03/27 01:21:29;;;;;;;13.18;2.47;;;5.30;99.90;;;;;;4110717;28;20483;-71
2023/03/27 01:24:07;;;;;;;6.82;1.50;;;5.30;99.90;;;;;;4136904;28;20109;-71
2023/03/27 01:26:17;;;;;;;7.15;1.73;;;5.30;99.90;;;;;;4134405;28;20039;-71
2023/03/27 01:28:37;;;;;;;8.65;2.15;;;5.20;99.90;;;;;;4139228;28;20112;-71
2023/03/27 01:30:47;;;;;;;9.02;1.75;;;5.20;99.90;;;;;;4128543;28;20084;-71
2023/03/27 01:33:37;;;;;;;10.45;1.80;;;5.20;99.90;;;;;;4132891;28;20474;-71
2023/03/27 01:36:00;;;;;;;6.38;1.88;;;5.20;99.90;;;;;;4133775;28;20038;-71
2023/03/27 01:38:27;;;;;;;6.30;1.73;;;5.10;99.90;;;;;;4139291;28;20030;-71
2023/03/27 01:40:36;;;;;;;6.97;1.77;;;5.10;99.90;;;;;;4134279;28;20092;-71
2023/03/27 01:43:03;;;;;;;16.42;2.45;;;5.10;99.90;;;;;;4136052;28;20045;-71
2023/03/27 01:45:19;;;;;;;5.80;1.30;;;5.10;99.90;;;;;;4126246;28;20489;-73
2023/03/27 01:47:42;;;;;;;12.45;2.17;;;5.10;99.90;;;;;;4139342;28;20041;-71
2023/03/27 01:49:52;;;;;;;11.00;2.15;;;5.10;99.90;;;;;;4129147;28;20117;-70
2023/03/27 01:51:59;;;;;;;8.65;1.85;;;4.90;99.90;;;;;;4132769;28;20038;-71
2023/03/27 01:54:14;;;;;;;7.95;1.83;;;5.00;99.90;;;;;;4133642;28;20128;-71
2023/03/27 01:56:25;;;;;;;7.40;1.65;;;5.00;99.90;;;;;;4126676;28;20031;-70
2023/03/27 01:58:32;;;;;;;11.73;2.47;;;5.00;99.90;;;;;;4135691;28;20034;-71
2023/03/27 02:00:34;;;;;;;9.57;2.08;;;5.00;99.90;;;;;;4127693;28;20386;-71
2023/03/27 02:02:36;;;;;;;;;;;5.00;99.90;;;;;;4139606;28;20038;-71
2023/03/27 02:04:46;;;;;;;9.52;1.83;;;5.00;99.90;;;;;;4131674;28;19921;-72
2023/03/27 02:06:56;;;;;;;11.05;1.90;;;4.90;99.90;;;;;;4137111;28;20397;-68
2023/03/27 02:09:08;;;;;;;7.18;1.83;;;4.80;99.90;;;;;;4130187;28;20050;-72
2023/03/27 02:11:09;;;;;;;8.98;1.95;;;4.80;99.90;;;;;;4131008;28;20124;-72
2023/03/27 02:13:20;;;;;;;8.85;2.08;;;4.80;99.90;;;;;;4125551;28;20058;-72
2023/03/27 02:15:30;;;;;;;7.90;2.10;;;4.80;99.90;;;;;;4130459;28;20049;-71
2023/03/27 02:17:37;;;;;;;6.82;1.60;;;4.80;99.90;;;;;;4129937;28;20048;-72
2023/03/27 02:19:55;;;;;;;11.60;1.98;;;4.80;99.90;;;;;;4129341;28;20049;-72
2023/03/27 02:21:55;;;;;;;7.00;1.48;;;4.80;99.90;;;;;;4130622;28;20389;-72
2023/03/27 02:23:56;;;;;;;11.40;2.05;;;4.80;99.90;;;;;;4130016;28;20026;-72
2023/03/27 02:25:57;;;;;;;10.43;2.22;;;4.80;99.90;;;;;;4131559;28;20482;-72
2023/03/27 02:28:04;;;;;;;10.88;2.20;;;4.90;99.90;;;;;;4131903;28;20497;-72
2023/03/27 02:30:20;;;;;;;9.20;2.05;;;4.80;99.90;;;;;;4128840;28;20042;-72
2023/03/27 02:33:07;;;;;;;8.18;1.90;;;4.70;99.90;;;;;;4140099;28;20504;-72
2023/03/27 02:35:44;;;;;;;7.57;2.03;;;4.70;99.90;;;;;;4091482;28;20028;-73
2023/03/27 02:38:34;;;;;;;8.70;2.03;;;4.70;99.90;;;;;;4096157;28;20057;-72
2023/03/27 02:40:39;;;;;;;8.15;1.80;;;4.70;99.90;;;;;;4085321;28;20042;-72
2023/03/27 02:42:59;;;;;;;5.65;1.77;;;4.80;99.90;;;;;;4097874;28;20031;-72
2023/03/27 02:45:09;;;;;;;2.95;1.10;;;4.70;99.90;;;;;;4098709;28;20034;-72
2023/03/27 02:47:27;;;;;;;6.93;1.38;;;4.80;99.90;;;;;;4126669;28;20050;-72
2023/03/27 02:49:33;;;;;;;5.93;1.67;;;4.80;99.90;;;;;;4130241;28;20526;-72
2023/03/27 02:51:40;;;;;;;8.40;1.92;;;4.80;99.90;;;;;;4133701;28;20500;-72
2023/03/27 02:53:56;;;;;;;10.55;2.58;;;4.80;99.90;;;;;;4131691;28;20034;-72
2023/03/27 02:56:00;;;;;;;9.52;1.90;;;4.80;99.90;;;;;;4126848;28;20513;-72
2023/03/27 02:58:07;;;;;;;6.30;1.60;;;4.80;99.90;;;;;;4130424;28;20034;-72
2023/03/27 03:00:17;;;;;;;8.07;1.60;;;4.80;99.90;;;;;;4131191;28;20026;-71
2023/03/27 03:02:24;;;;;;;7.57;1.90;;;4.80;99.90;;;;;;4147844;28;20022;-72
2023/03/27 03:04:34;;;;;;;9.05;2.33;;;4.80;99.90;;;;;;4132019;28;20418;-72
2023/03/27 03:06:35;;;;;;;7.05;1.83;;;4.80;99.90;;;;;;4126853;28;20038;-71
2023/03/27 03:08:37;;;;;;;11.02;1.55;;;4.80;99.90;;;;;;4128011;28;20100;-72
2023/03/27 03:10:44;;;;;;;6.47;1.73;;;4.70;99.90;;;;;;4127527;28;20038;-72
2023/03/27 03:12:45;;;;;;;6.22;1.73;;;4.70;99.90;;;;;;4136956;28;20453;-71
2023/03/27 03:14:46;;;;;;;2.85;1.40;;;4.70;99.90;;;;;;4132467;28;20035;-71
2023/03/27 03:16:47;;;;;;;10.23;2.00;;;4.80;99.90;;;;;;4137957;28;20027;-71
2023/03/27 03:18:48;;;;;;;10.15;2.00;;;4.80;99.90;;;;;;4132831;28;20112;-71
2023/03/27 03:20:48;;;;;;;8.70;2.35;;;4.80;99.90;;;;;;4137378;28;20034;-71
2023/03/27 03:22:49;;;;;;;3.97;1.52;;;4.70;99.90;;;;;;4127903;28;20389;-70
2023/03/27 03:24:49;;;;;;;5.53;1.60;;;4.70;99.90;;;;;;4137061;28;20037;-70
2023/03/27 03:26:50;;;;;;;8.93;1.80;;;4.70;99.90;;;;;;4137160;28;20065;-70
2023/03/27 03:28:51;;;;;;;11.02;2.10;;;4.70;99.90;;;;;;4135070;28;20112;-71
2023/03/27 03:30:52;;;;;;;7.70;1.40;;;4.70;99.90;;;;;;4133279;28;20030;-71
2023/03/27 03:32:56;;;;;;;7.45;1.92;;;4.60;99.90;;;;;;4131502;28;20034;-71
2023/03/27 03:34:57;;;;;;;4.28;1.40;;;4.60;99.90;;;;;;4139314;28;20481;-71
2023/03/27 03:36:59;;;;;;;5.60;1.77;;;4.70;99.90;;;;;;4132595;28;20042;-72
2023/03/27 03:38:59;;;;;;;7.60;2.87;;;4.70;99.90;;;;;;4130031;28;20084;-71
2023/03/27 03:41:00;;;;;;;4.57;1.55;;;4.60;99.90;;;;;;4132795;28;20736;-71
2023/03/27 03:43:01;;;;;;;4.35;1.58;;;4.70;99.90;;;;;;4129036;28;20061;-72
2023/03/27 03:45:01;;;;;;;7.45;1.52;;;4.70;99.90;;;;;;4128650;28;20034;-71
2023/03/27 03:47:03;;;;;;;8.15;1.90;;;4.70;99.90;;;;;;4130444;28;20113;-71
2023/03/27 03:49:03;;;;;;;12.05;2.13;;;4.70;99.90;;;;;;4131821;28;20057;-71
2023/03/27 03:51:04;;;;;;;8.57;1.60;;;4.60;99.90;;;;;;4131594;28;20037;-72
2023/03/27 03:53:05;;;;;;;4.85;1.70;;;4.60;99.90;;;;;;4130117;28;20034;-71
2023/03/27 03:55:07;;;;;;;8.63;1.55;;;4.50;99.90;;;;;;4132661;28;20035;-71
2023/03/27 03:57:07;;;;;;;8.70;1.60;;;4.60;99.90;;;;;;4132141;28;20103;-71
2023/03/27 03:59:10;;;;;;;11.23;1.73;;;4.60;99.90;;;;;;4133955;28;20022;-71
2023/03/27 04:01:11;;;;;;;6.70;1.77;;;4.60;99.90;;;;;;4132691;28;20095;-71
2023/03/27 04:03:13;;;;;;;7.28;1.98;;;4.60;99.90;;;;;;4133909;28;20113;-71
2023/03/27 04:05:14;;;;;;;10.65;1.75;;;4.60;99.90;;;;;;4133582;28;20046;-73
2023/03/27 04:07:16;;;;;;;7.30;1.70;;;4.60;99.90;;;;;;4132241;28;20034;-71
2023/03/27 04:09:17;;;;;;;8.23;1.60;;;4.60;99.90;;;;;;4132377;28;20054;-72
2023/03/27 04:11:18;;;;;;;7.35;2.03;;;4.60;99.90;;;;;;4133524;28;20031;-71
2023/03/27 04:13:18;;;;;;;11.65;2.28;;;4.70;99.90;;;;;;4132478;28;20053;-72
2023/03/27 04:15:19;;;;;;;9.35;1.70;;;4.70;99.90;;;;;;4129653;28;20026;-67
2023/03/27 04:17:25;;;;;;;5.07;1.45;;;4.70;99.90;;;;;;4130476;28;20378;-71
2023/03/27 04:19:25;;;;;;;5.13;1.63;;;4.70;99.90;;;;;;4129919;28;20390;-71
2023/03/27 04:21:26;;;;;;;4.68;1.50;;;4.70;99.90;;;;;;4134253;28;20030;-71
2023/03/27 04:23:32;;;;;;;9.25;2.25;;;4.80;99.90;;;;;;4130758;28;20061;-72
2023/03/27 04:25:33;;;;;;;10.57;1.85;;;4.80;99.90;;;;;;4131362;28;20058;-72
2023/03/27 04:27:34;;;;;;;7.45;1.85;;;4.80;99.90;;;;;;4131908;28;20038;-72
2023/03/27 04:29:35;;;;;;;6.07;1.50;;;4.80;99.90;;;;;;4135994;28;20116;-71
2023/03/27 04:31:37;;;;;;;6.03;1.60;;;4.80;99.90;;;;;;4132050;28;20030;-71
2023/03/27 04:33:45;;;;;;;5.47;2.03;;;4.80;99.90;;;;;;4147450;28;20973;-71
2023/03/27 04:35:45;;;;;;;8.57;2.03;;;4.80;99.90;;;;;;4130245;28;20093;-71
2023/03/27 04:37:47;;;;;;;7.78;2.55;;;4.90;99.90;;;;;;4130971;28;20030;-71
2023/03/27 04:39:47;;;;;;;10.38;2.05;;;4.90;99.90;;;;;;4132322;28;20043;-71
2023/03/27 04:41:48;;;;;;;7.32;2.03;;;4.90;99.90;;;;;;4131445;28;20035;-71
2023/03/27 04:43:49;;;;;;;6.22;1.80;;;4.90;99.90;;;;;;4134497;28;20430;-71
2023/03/27 04:45:49;;;;;;;10.00;2.15;;;4.90;99.90;;;;;;4132714;28;20038;-72
2023/03/27 04:47:50;;;;;;;4.35;1.60;;;4.90;99.90;;;;;;4130640;28;20042;-72
2023/03/27 04:49:50;;;;;;;8.30;1.88;;;4.80;99.90;;;;;;4133257;28;20064;-70
2023/03/27 04:51:51;;;;;;;14.57;1.92;;;4.90;99.90;;;;;;4129416;28;20034;-70
2023/03/27 04:53:51;;;;;;;8.00;1.92;;;4.90;99.90;;;;;;4130963;28;20041;-70
2023/03/27 04:55:53;;;;;;;4.50;1.45;;;4.90;99.90;;;;;;4139018;28;20038;-70
2023/03/27 04:57:56;;;;;;;8.03;2.20;;;4.90;99.90;;;;;;4131404;28;20493;-71
2023/03/27 04:59:57;;;;;;;;;;;4.80;99.90;;;;;;4144862;28;20030;-71
2023/03/27 05:02:00;;;;;;;8.93;2.30;;;4.90;99.90;;;;;;4133721;28;19945;-70
2023/03/27 05:04:03;;;;;;;9.40;2.00;;;4.90;99.90;;;;;;4126524;28;20236;-71
2023/03/27 05:06:04;;;;;;;8.27;1.98;;;4.90;99.90;;;;;;4129515;28;20498;-70
2023/03/27 05:08:05;;;;;;;11.50;2.53;;;4.90;99.90;;;;;;4136571;28;20054;-71
2023/03/27 05:10:06;;;;;;;4.90;1.70;;;4.80;99.90;;;;;;4129616;28;20043;-71
2023/03/27 05:12:06;;;;;;;7.40;2.17;;;4.80;99.90;;;;;;4129219;28;20030;-72
2023/03/27 05:14:07;;;;;;;8.07;2.95;;;4.80;99.90;;;;;;4131248;28;20033;-71
2023/03/27 05:16:08;;;;;;;11.55;3.25;;;4.80;99.90;;;;;;4128141;28;20045;-71
2023/03/27 05:18:09;;;;;;;11.52;2.60;;;4.80;99.90;;;;;;4137286;28;20033;-71
2023/03/27 05:20:13;;;;;;;13.65;3.30;;;4.90;99.90;;;;;;4128684;28;20034;-74
2023/03/27 05:22:14;;;;;;;8.30;2.58;;;4.80;99.90;;;;;;4127307;28;20054;-70
2023/03/27 05:24:15;;;;;;;9.25;1.95;;;4.70;99.90;;;;;;4126556;28;20026;-70
2023/03/27 05:26:16;;;;;;;6.80;2.10;;;4.80;99.90;;;;;;4130283;28;20040;-70
2023/03/27 05:28:17;;;;;;;6.05;2.08;;;4.80;99.90;;;;;;4130107;28;20030;-70
2023/03/27 05:30:20;;;;;;;10.82;2.00;;;4.80;99.90;;;;;;4128037;28;20114;-70
2023/03/27 05:32:20;;;;;;;9.57;1.95;;;4.80;99.90;;;;;;4129905;28;20126;-71
2023/03/27 05:34:21;;;;;;;6.70;1.90;;;4.80;99.90;;;;;;4126718;28;20552;-69
2023/03/27 05:36:21;;;;;;;9.65;2.13;;;4.80;99.90;;;;;;4127862;28;20054;-70
2023/03/27 05:38:23;;;;;;;9.55;2.17;;;4.80;99.90;;;;;;4129759;28;20034;-70
2023/03/27 05:40:25;;;;;;;8.88;2.13;;;4.70;99.90;;;;;;4129709;28;20490;-70
2023/03/27 05:42:25;;;;;;;7.93;1.92;;;4.70;99.90;;;;;;4128411;28;20080;-71
2023/03/27 05:44:26;;;;;;;8.02;1.92;;;4.70;99.90;;;;;;4130043;28;20561;-71
2023/03/27 05:46:27;;;;;;;7.00;1.90;;;4.70;99.90;;;;;;4125889;28;20398;-70
2023/03/27 05:48:27;;;;;;;5.88;1.73;;;4.70;99.90;;;;;;4125037;28;20435;-72
2023/03/27 05:50:34;;;;;;;6.40;1.48;;;4.70;99.90;;;;;;4129259;28;20183;-70
2023/03/27 05:52:34;;;;;;;6.93;1.83;;;4.70;99.90;;;;;;4128025;28;20096;-70
2023/03/27 05:54:35;;;;;;;5.43;1.55;;;4.70;99.90;;;;;;4129278;28;20034;-71
2023/03/27 05:56:36;;;;;;;5.18;1.60;;;4.70;99.90;;;;;;4126963;28;20038;-70
2023/03/27 05:58:37;;;;;;;6.28;2.00;;;4.70;99.90;;;;;;4129116;28;20038;-71
2023/03/27 06:00:41;;;;;;;5.97;1.73;;;4.70;99.90;;;;;;4126877;28;20038;-71
2023/03/27 06:02:43;;;;;;;8.07;1.77;;;4.70;99.90;;;;;;4125813;28;20096;-71
2023/03/27 06:04:44;;;;;;;4.75;1.65;;;4.70;99.90;;;;;;4129818;28;20034;-71
2023/03/27 06:06:44;;;;;;;3.33;1.20;;;4.80;99.90;;;;;;4128934;28;20037;-69
2023/03/27 06:08:45;;;;;;;4.50;1.33;;;4.80;99.90;;;;;;4130474;28;20038;-70
2023/03/27 06:10:45;;;;;;;3.33;1.45;;;4.90;99.90;;;;;;4127830;28;20034;-70
2023/03/27 06:12:49;;;;;;;5.03;1.15;;;4.90;99.90;;;;;;4129694;28;20042;-71
2023/03/27 06:14:50;;;;;;;5.75;1.30;;;4.90;99.90;;;;;;4129566;28;20034;-71
2023/03/27 06:16:50;;;;;;;5.60;1.75;;;5.00;99.90;;;;;;4130284;28;20378;-70
2023/03/27 06:18:51;;;;;;;6.15;1.58;;;5.00;99.90;;;;;;4129293;28;20034;-70
2023/03/27 06:20:52;;;;;;;7.20;1.70;;;5.00;99.90;;;;;;4127159;28;20517;-70
2023/03/27 06:23:01;;;;;;;4.28;1.20;;;5.10;99.90;;;;;;4128355;28;20039;-70
2023/03/27 06:25:03;;;;;;;4.88;1.30;;;5.10;99.90;;;;;;4128778;28;20041;-71
2023/03/27 06:27:05;;;;;;;3.83;1.35;;;5.10;99.90;;;;;;4130195;28;20042;-70
2023/03/27 06:29:05;;;;;;;6.50;1.88;;;5.20;99.90;;;;;;4130599;28;20363;-70
2023/03/27 06:31:07;;;;;;;5.38;1.65;;;5.20;99.90;;;;;;4127479;28;20367;-71
2023/03/27 06:33:08;;;;;;;4.38;1.55;;;5.20;99.90;;;;;;4129299;28;20041;-71
2023/03/27 06:35:09;;;;;;;6.05;1.55;;;5.30;99.90;;;;;;4129325;28;20394;-71
2023/03/27 06:37:10;;;;;;;6.55;1.67;;;5.40;99.90;;;;;;4128848;28;20042;-71
2023/03/27 06:39:10;;;;;;;5.70;1.20;;;5.60;99.90;;;;;;4130185;28;20058;-71
2023/03/27 06:41:11;;;;;;;5.18;1.65;;;5.80;99.90;;;;;;4127800;28;20030;-71
2023/03/27 06:43:12;;;;;;;2.45;1.15;;;6.10;99.90;;;;;;4127939;28;20031;-71
2023/03/27 06:45:13;;;;;;;3.38;1.13;;;6.30;99.90;;;;;;4126820;28;21193;-72
2023/03/27 06:47:14;;;;;;;4.72;1.15;;;6.60;99.90;;;;;;4124827;28;20111;-71
2023/03/27 06:49:14;;;;;;;6.10;1.58;;;6.80;99.90;;;;;;4127243;28;20038;-71
2023/03/27 06:51:15;;;;;;;8.63;1.80;;;7.00;99.90;;;;;;4126974;28;20042;-71
2023/03/27 06:53:16;;;;;;;4.47;1.35;;;7.30;99.90;;;;;;4126275;28;20030;-71
2023/03/27 06:55:19;;;;;;;4.60;1.38;;;7.60;99.90;;;;;;4125509;28;20035;-72
2023/03/27 06:57:20;;;;;;;6.38;1.50;;;7.70;99.90;;;;;;4126130;28;20029;-72
2023/03/27 06:59:21;;;;;;;4.22;1.25;;;7.90;99.90;;;;;;4127479;28;20456;-72
2023/03/27 07:01:22;;;;;;;7.30;1.38;;;8.10;99.90;;;;;;4124831;28;20105;-72
2023/03/27 07:03:22;;;;;;;3.80;1.17;;;8.20;99.90;;;;;;4143218;28;20030;-72
2023/03/27 07:05:25;;;;;;;2.42;1.00;;;8.40;99.90;;;;;;4124871;28;20057;-72
2023/03/27 07:07:25;;;;;;;4.10;1.00;;;8.60;99.90;;;;;;4125952;28;20398;-71
2023/03/27 07:09:26;;;;;;;4.40;1.42;;;8.80;99.90;;;;;;4126581;28;20023;-71
2023/03/27 07:11:27;;;;;;;4.72;1.38;;;9.00;99.90;;;;;;4127911;28;20037;-72
2023/03/27 07:13:27;;;;;;;5.13;1.20;;;9.20;99.90;;;;;;4127566;28;20058;-72
2023/03/27 07:15:28;;;;;;;6.20;1.25;;;9.40;99.90;;;;;;4125255;28;20034;-72
2023/03/27 07:17:28;;;;;;;5.93;1.42;;;9.70;99.90;;;;;;4127670;28;20127;-72
2023/03/27 07:19:29;;;;;;;1.75;0.77;;;9.80;99.90;;;;;;4128227;28;20502;-72
2023/03/27 07:21:29;;;;;;;7.05;1.27;;;9.90;99.90;;;;;;4126778;28;20425;-72
2023/03/27 07:23:30;;;;;;;4.72;1.00;;;10.00;99.90;;;;;;4126695;28;20069;-72
2023/03/27 07:25:36;;;;;;;3.70;1.27;;;10.00;99.90;;;;;;4125022;28;20117;-71
2023/03/27 07:27:37;;;;;;;3.83;1.00;;;10.10;99.90;;;;;;4122812;28;20049;-72
2023/03/27 07:29:38;;;;;;;5.32;1.02;;;10.20;99.90;;;;;;4127586;28;20092;-72
2023/03/27 07:31:39;;;;;;;3.03;1.40;;;10.30;99.90;;;;;;4124620;28;20113;-72
2023/03/27 07:33:40;;;;;;;4.13;1.40;;;10.50;99.90;;;;;;4124372;28;20054;-72
2023/03/27 07:35:45;;;;;;;2.35;0.95;;;10.60;99.90;;;;;;4124353;28;20045;-72
2023/03/27 07:37:45;;;;;;;6.93;1.65;;;10.60;99.90;;;;;;4126661;28;20494;-69
2023/03/27 07:39:46;;;;;;;4.35;1.13;;;10.80;99.90;;;;;;4127360;28;20035;-70
2023/03/27 07:41:46;;;;;;;2.42;0.88;;;10.90;99.90;;;;;;4129350;28;20386;-71
2023/03/27 07:43:47;;;;;;;5.05;1.15;;;10.90;99.90;;;;;;4128465;28;20512;-71
2023/03/27 07:45:48;;;;;;;3.17;1.20;;;11.10;99.90;;;;;;4123338;28;20104;-71
2023/03/27 07:47:49;;;;;;;2.70;1.10;;;11.10;99.90;;;;;;4124409;28;20129;-71
2023/03/27 07:49:49;;;;;;;3.53;1.20;;;11.20;99.90;;;;;;4127873;28;20546;-71
2023/03/27 07:51:51;;;;;;;6.45;1.70;;;11.20;99.90;;;;;;4128398;28;20030;-72
2023/03/27 07:53:57;;;;;;;3.13;1.30;;;11.10;99.90;;;;;;4126053;28;20057;-72
2023/03/27 07:55:57;;;;;;;3.28;1.30;;;11.20;99.90;;;;;;4132072;28;20037;-71
2023/03/27 07:57:58;;;;;;;4.82;1.20;;;11.20;99.90;;;;;;4129262;28;20026;-71
2023/03/27 08:00:00;;;;;;;4.13;1.23;;;11.20;99.90;;;;;;4126049;28;20043;-71
2023/03/27 08:02:01;;;;;;;4.80;1.52;;;11.10;99.90;;;;;;4126814;28;20455;-71
2023/03/27 08:04:02;;;;;;;4.85;1.40;;;11.20;99.90;;;;;;4125434;28;20031;-71
2023/03/27 08:06:03;;;;;;;2.95;1.30;;;11.10;99.90;;;;;;4124476;28;20177;-72
2023/03/27 08:08:04;;;;;;;2.85;1.35;;;11.20;99.90;;;;;;4124895;28;20494;-71
2023/03/27 08:10:05;;;;;;;7.70;1.50;;;11.20;99.90;;;;;;4126745;28;20039;-73
2023/03/27 08:12:06;;;;;;;4.53;1.60;;;11.20;99.90;;;;;;4132596;28;20042;-71
2023/03/27 08:14:10;;;;;;;5.13;1.58;;;10.90;99.90;;;;;;4140849;28;20044;-71
2023/03/27 08:16:13;;;;;;;5.47;1.70;;;10.90;99.90;;;;;;4124177;28;20538;-72
2023/03/27 08:18:14;;;;;;;4.13;1.52;;;10.80;99.90;;;;;;4129638;28;20042;-71
2023/03/27 08:20:16;;;;;;;5.70;1.52;;;10.40;99.90;;;;;;4125742;28;20126;-72
2023/03/27 08:22:17;;;;;;;;;;;10.40;99.90;;;;;;4131489;28;20041;-71
2023/03/27 08:24:18;;;;;;;7.35;1.70;;;10.30;99.90;;;;;;4127939;28;19964;-71
2023/03/27 08:26:19;;;;;;;6.97;1.80;;;10.10;99.90;;;;;;4127749;28;20037;-71
2023/03/27 08:28:20;;;;;;;5.72;1.70;;;10.10;99.90;;;;;;4129054;28;20439;-71
2023/03/27 08:30:22;;;;;;;6.35;1.90;;;10.10;99.90;;;;;;4127245;28;20034;-71
2023/03/27 08:32:23;;;;;;;4.70;1.70;;;10.30;99.90;;;;;;4129551;28;20529;-71
2023/03/27 08:34:23;;;;;;;4.82;1.48;;;10.30;99.90;;;;;;4124732;28;20067;-71
2023/03/27 08:36:24;;;;;;;5.72;2.00;;;10.30;99.90;;;;;;4124501;28;20035;-70
2023/03/27 08:38:27;;;;;;;5.05;1.75;;;10.20;99.90;;;;;;4127606;28;20031;-71
2023/03/27 08:40:32;;;;;;;7.13;1.83;;;10.30;99.90;;;;;;4122195;28;20474;-71
2023/03/27 08:42:41;;;;;;;7.93;1.60;;;10.30;99.90;;;;;;4128934;28;20030;-71
2023/03/27 08:44:42;;;;;;;6.70;1.98;;;10.20;99.90;;;;;;4129929;28;20081;-71
2023/03/27 08:47:11;;;;;;;4.47;1.75;;;10.10;99.90;;;;;;4127688;28;20022;-71
2023/03/27 08:49:20;;;;;;;5.78;1.70;;;10.00;99.90;;;;;;4129290;28;20129;-71
2023/03/27 08:51:32;;;;;;;5.20;1.75;;;9.90;99.90;;;;;;4129684;28;20036;-70
2023/03/27 08:53:46;;;;;;;11.23;2.30;;;9.80;99.90;;;;;;4129741;28;20038;-71
2023/03/27 08:55:46;;;;;;;5.65;1.60;;;9.70;99.90;;;;;;4127632;28;20042;-70
2023/03/27 08:57:49;;;;;;;9.43;1.90;;;9.70;99.90;;;;;;4126471;28;20042;-70
2023/03/27 08:59:55;;;;;;;8.60;2.00;;;9.70;99.90;;;;;;4130720;28;20033;-71
2023/03/27 09:02:07;;;;;;;5.57;2.15;;;9.70;99.90;;;;;;4126580;28;20042;-70
2023/03/27 09:04:33;;;;;;;7.85;2.10;;;9.50;99.90;;;;;;4123691;28;20568;-70
2023/03/27 09:06:53;;;;;;;9.32;2.20;;;9.40;99.90;;;;;;4128722;28;20033;-70
2023/03/27 09:09:33;;;;;;;9.88;2.10;;;9.30;99.90;;;;;;4130328;28;20477;-70
2023/03/27 09:11:53;;;;;;;7.90;1.77;;;9.30;99.90;;;;;;4130188;28;20038;-70
2023/03/27 09:13:54;;;;;;;7.93;2.15;;;9.40;99.90;;;;;;4125401;28;20035;-70
2023/03/27 09:16:11;;;;;;;10.93;2.25;;;9.50;99.90;;;;;;4129365;28;20036;-71
2023/03/27 09:18:18;;;;;;;8.75;2.05;;;9.80;99.90;;;;;;4129266;28;20386;-71
2023/03/27 09:20:31;;;;;;;6.82;2.10;;;9.90;99.90;;;;;;4127559;28;20378;-70
2023/03/27 09:22:43;;;;;;;;;;;9.80;99.90;;;;;;4127414;28;20042;-71
2023/03/27 09:24:47;;;;;;;4.53;1.40;;;9.80;99.90;;;;;;4129742;28;19916;-71
2023/03/27 09:26:50;;;;;;;3.83;1.33;;;9.80;99.90;;;;;;4123807;28;20043;-70
2023/03/27 09:29:21;;;;;;;;;;;9.80;99.90;;;;;;4126633;28;20069;-71
2023/03/27 09:31:26;;;;;;;10.50;2.08;;;9.80;99.90;;;;;;4118420;28;19960;-70
2023/03/27 09:33:27;;;;;;;4.97;1.52;;;9.80;99.90;;;;;;4129467;28;20031;-70
2023/03/27 09:35:28;;;;;;;8.45;1.77;;;9.70;99.90;;;;;;4127682;28;20451;-69
2023/03/27 09:37:28;;;;;;;7.53;1.83;;;9.40;99.90;;;;;;4127359;28;20047;-70
2023/03/27 09:39:32;;;;;;;9.27;1.50;;;9.30;99.90;;;;;;4128328;28;20481;-70
2023/03/27 09:41:41;;;;;;;12.00;1.90;;;9.20;99.90;;;;;;4123920;28;20022;-70
2023/03/27 09:43:55;;;;;;;5.13;1.65;;;9.00;99.90;;;;;;4128891;28;20456;-70
2023/03/27 09:45:57;;;;;;;6.82;1.67;;;9.00;99.90;;;;;;4147623;28;20022;-70
2023/03/27 09:48:03;;;;;;;13.73;1.88;;;8.90;99.90;;;;;;4126955;28;20034;-69
2023/03/27 09:50:30;;;;;;;12.15;2.53;;;8.90;99.90;;;;;;4128163;28;20075;-71
2023/03/27 09:52:38;;;;;;;5.38;1.42;;;9.00;99.90;;;;;;4128113;28;20022;-69
2023/03/27 09:54:51;;;;;;;5.32;1.55;;;9.00;99.90;;;;;;4123957;28;20035;-70
2023/03/27 09:56:53;;;;;;;9.40;2.08;;;9.00;99.90;;;;;;4124845;28;20045;-70
2023/03/27 09:58:56;;;;;;;7.55;1.63;;;9.10;99.90;;;;;;4125395;28;20045;-70
2023/03/27 10:01:12;;;;;;;4.57;1.73;;;9.00;99.90;;;;;;4126577;28;20489;-68
2023/03/27 10:03:16;;;;;;;6.90;1.45;;;9.00;99.90;;;;;;4125137;28;20042;-70
2023/03/27 10:05:18;;;;;;;7.53;2.40;;;8.90;99.90;;;;;;4129568;28;20058;-70
2023/03/27 10:07:24;;;;;;;9.23;2.13;;;8.80;99.90;;;;;;4129655;28;20140;-70
2023/03/27 10:09:31;;;;;;;8.18;1.95;;;8.90;99.90;;;;;;4125914;28;20034;-71
2023/03/27 10:11:34;;;;;;;5.07;1.70;;;8.80;99.90;;;;;;4139134;28;20041;-70
2023/03/27 10:13:35;;;;;;;7.70;1.55;;;8.80;99.90;;;;;;4122162;28;20035;-70
2023/03/27 10:15:38;;;;;;;5.55;1.35;;;8.70;99.90;;;;;;4132935;28;20038;-70
2023/03/27 10:17:39;;;;;;;;;;;8.80;99.90;;;;;;4126441;28;20034;-70
2023/03/27 10:19:41;;;;;;;7.78;1.33;;;8.70;99.90;;;;;;4140969;28;19918;-70
2023/03/27 10:21:42;;;;;;;8.45;1.30;;;8.80;99.90;;;;;;4123430;28;20026;-70
2023/03/27 10:23:48;;;;;;;7.23;1.40;;;8.90;99.90;;;;;;4125759;28;20018;-69
2023/03/27 10:25:50;;;;;;;6.65;1.00;;;9.00;99.90;;;;;;4126566;28;20037;-70
2023/03/27 10:27:52;;;;;;;5.82;1.30;;;9.10;99.90;;;;;;4126503;28;20122;-69
2023/03/27 10:29:53;;;;;;;4.18;1.02;;;9.20;99.90;;;;;;4129863;28;20035;-70
2023/03/27 10:31:58;;;;;;;5.15;1.52;;;9.30;99.90;;;;;;4127616;28;20053;-70
2023/03/27 10:34:02;;;;;;;3.08;1.20;;;9.40;99.90;;;;;;4129073;28;20029;-69
2023/03/27 10:36:05;;;;;;;8.52;1.45;;;9.40;99.90;;;;;;4122306;28;20037;-71
2023/03/27 10:38:11;;;;;;;4.10;0.93;;;9.20;99.90;;;;;;4124305;28;20040;-70
2023/03/27 10:40:17;;;;;;;5.68;1.23;;;9.00;99.90;;;;;;4121774;28;20339;-69
2023/03/27 10:42:18;;;;;;;2.30;0.50;;;8.40;99.90;;;;;;4122527;28;20049;-71
2023/03/27 10:44:24;;;;;;;4.88;0.70;;;7.80;99.90;;;;;;4125514;28;20474;-69
2023/03/27 10:46:27;;;;;;;2.28;0.52;;;7.40;99.90;;;;;;4125269;28;20482;-70
2023/03/27 10:48:31;;;;;;;0.65;0.43;;;7.10;99.90;;;;;;4127793;28;20034;-68
2023/03/27 10:50:43;;;;;;;1.67;0.55;;;6.90;99.90;;;;;;4124503;28;20038;-69
2023/03/27 10:53:21;;;;;;;2.25;0.70;;;6.70;99.90;;;;;;4126672;28;20065;-71
2023/03/27 10:55:35;;;;;;;1.92;0.55;;;6.70;99.90;;;;;;4125406;28;20045;-70
2023/03/27 10:57:36;;;;;;;3.60;0.85;;;6.60;99.90;;;;;;4126505;28;20034;-71